Flight Track Log - Related Links

Times and Time Zones

All times are in EST time to prevent confusion due to time zone crossing. See the UPS218 flight status page for this flight to view local times or setup timezone preferences in your user account.

Time Position Orientation Groundspeed Altitude Reporting Facility
EST Latitude Longitude Course Direction KTS MPH feet Rate Location/Type
Thu 12:37:00 AM 49.0405 2.4037 291° West  Level FlightAware Approximate
Thu 12:38:00 AM 49.0805 2.2442 291° West  Level FlightAware Approximate
Thu 12:39:00 AM 49.1202 2.0844 291° West  Level FlightAware Approximate
Thu 12:40:00 AM 49.1598 1.9244 291° West  Level FlightAware Approximate
Thu 12:41:00 AM 49.1991 1.7642 291° West  Level FlightAware Approximate
Thu 12:41:49 AM 48.9676 1.9377 291° West 1 1 13,200  Level FlightAware UK
Thu 12:41:55 AM 48.9688 1.9216 277° West 400 460 13,600 3,429 Climbing FlightAware UK
Thu 12:42:31 AM 48.9689 1.8241 270° West 408 470 15,600 2,909 Climbing FlightAware UK
Thu 12:43:01 AM 48.9684 1.7403 270° West 418 481 16,800 2,585 Climbing FlightAware UK
Thu 12:43:36 AM 48.9685 1.6390 270° West 428 493 18,400 2,585 Climbing FlightAware UK
Thu 12:44:06 AM 48.9674 1.5509 269° West 438 504 19,600 2,459 Climbing FlightAware UK
Thu 12:44:37 AM 48.9670 1.4632 270° West 444 511 20,900 2,571 Climbing FlightAware UK
Thu 12:44:48 AM 48.9669 1.4364 270° West 417 480 21,400 2,182 Climbing FlightAware ADS-B (EGLF / FAB)
Thu 12:45:21 AM 48.9663 1.3341 270° West 424 488 22,500 1,739 Climbing FlightAware ADS-B
Thu 12:45:57 AM 48.9655 1.2241 269° West 439 505 23,400 1,636 Climbing FlightAware ADS-B (EGLF / FAB)
Thu 12:46:27 AM 48.9647 1.1326 269° West 446 513 24,300 1,791 Climbing FlightAware ADS-B
Thu 12:47:04 AM 48.9636 1.0117 269° West 454 522 25,400 1,769 Climbing FlightAware ADS-B (EGLF / FAB)
Thu 12:47:45 AM 48.9626 0.9012 269° West 458 527 26,600 1,875 Climbing FlightAware ADS-B (EGLF / FAB)
Thu 12:48:24 AM 48.9611 0.7541 269° West 484 557 27,900 2,143 Climbing FlightAware UK
Thu 12:48:27 AM 48.9614 0.7487 269° West 458 527 28,100 2,462 Climbing FlightAware ADS-B
Thu 12:49:03 AM 48.9620 0.6919 271° West 448 516 29,500 1,862 Climbing FlightAware ADS-B (LFBU / ANG)
Thu 12:49:54 AM 48.9693 0.4701 271° West 470 541 30,800 1,600 Climbing FlightAware UK
Thu 12:50:03 AM 48.9698 0.4608 271° West 448 516 31,100 1,412 Climbing FlightAware ADS-B (LFBU / ANG)
Thu 12:50:45 AM 48.9760 0.3172 274° West 445 512 32,000 730 Climbing FlightAware ADS-B (EGPK / PIK)
Thu 12:51:17 AM 48.9803 0.2128 274° West 437 503 32,000  Level FlightAware ADS-B (EGPK / PIK)
Thu 12:51:50 AM 48.9846 0.1119 274° West 435 501 32,000  Level FlightAware ADS-B (EGLF / FAB)
Thu 12:52:23 AM 48.9850 0.1026 274° West 440 506 32,000  Level FlightAware ADS-B (LFBU / ANG)
Thu 12:52:54 AM 48.9919 -0.0847 273° West 445 512 32,000  Level FlightAware ADS-B (EGLF / FAB)
Thu 12:53:25 AM 48.9939 -0.1321 274° West 448 516 32,000  Level FlightAware ADS-B (LFBU / ANG)
Thu 12:54:04 AM 48.9990 -0.2848 273° West 452 520 32,000  Level FlightAware ADS-B (LFBU / ANG)
Thu 12:54:39 AM 49.0036 -0.4166 273° West 454 522 32,000  Level FlightAware ADS-B (EGJJ / JER)
Thu 12:55:09 AM 49.0058 -0.4849 273° West 455 524 32,000  Level FlightAware ADS-B
Thu 12:55:39 AM 49.0095 -0.6037 273° West 455 524 32,000  Level FlightAware ADS-B (EGJJ / JER)
Thu 12:56:09 AM 49.0123 -0.6918 273° West 454 522 32,000  Level FlightAware ADS-B
Thu 12:56:40 AM 49.0155 -0.7972 273° West 454 522 32,000  Level FlightAware ADS-B (EGJJ / JER)
Thu 12:57:11 AM 49.0175 -0.9001 273° West 474 545 32,000  Level FlightAware UK
Thu 12:57:18 AM 49.0190 -0.9224 273° West 453 521 32,000  Level FlightAware ADS-B (EGPK / PIK)
Thu 12:57:48 AM 49.0216 -1.0124 273° West 453 521 32,000  Level FlightAware ADS-B
Thu 12:58:20 AM 49.0244 -1.1101 273° West 452 520 32,000  Level FlightAware ADS-B (EGPK / PIK)
Thu 12:58:40 AM 49.0263 -1.1812 272° West 452 520 32,000  Level FlightAware ADS-B (EGPK / PIK)
Thu 12:59:11 AM 49.0289 -1.2769 272° West 452 520 32,000  Level FlightAware ADS-B
Thu 12:59:42 AM 49.0314 -1.3765 272° West 452 520 32,000  Level FlightAware ADS-B (EGPK / PIK)
Thu 01:00:20 AM 49.0343 -1.4945 272° West 451 519 32,000  Level FlightAware ADS-B (EGJJ / JER)
Thu 01:00:51 AM 49.0366 -1.5967 272° West 451 519 32,000  Level FlightAware ADS-B
Thu 01:01:26 AM 49.0392 -1.7087 272° West 451 519 32,000  Level FlightAware ADS-B (CYOW)
Thu 01:01:59 AM 49.0413 -1.8139 272° West 450 518 32,000  Level FlightAware ADS-B (EGJJ / JER)
Thu 01:02:31 AM 49.0432 -1.9155 272° West 450 518 32,000  Level FlightAware ADS-B (EGLF / FAB)
Thu 01:02:50 AM 49.0443 -1.9724 272° West 450 518 32,000  Level FlightAware ADS-B
Thu 01:03:12 AM 49.0456 -2.0435 272° West 450 518 32,000  Level FlightAware ADS-B
Thu 01:03:46 AM 49.0476 -2.1498 272° West 451 519 32,000  Level FlightAware ADS-B (CYOW)
Thu 01:03:49 AM 49.0478 -2.1599 272° West 451 519 32,000  Level FlightAware ADS-B
Thu 01:04:00 AM 49.0484 -2.1966 272° West 451 519 32,000  Level FlightAware ADS-B (EGLF / FAB)
Thu 01:04:31 AM 49.0500 -2.2944 271° West 452 520 32,000  Level FlightAware ADS-B (EGLF / FAB)
Thu 01:04:51 AM 49.0509 -2.3571 271° West 453 521 32,000  Level FlightAware ADS-B
Thu 01:04:54 AM 49.0511 -2.3666 272° West 453 521 32,000  Level FlightAware ADS-B
Thu 01:05:26 AM 49.0526 -2.4675 271° West 454 522 32,000  Level FlightAware ADS-B (CYOW)
Thu 01:05:37 AM 49.0530 -2.5024 271° West 454 522 32,000  Level FlightAware ADS-B
Thu 01:05:54 AM 49.0539 -2.5583 271° West 454 522 32,000  Level FlightAware ADS-B
Thu 01:06:05 AM 49.0544 -2.5947 271° West 454 522 32,000  Level FlightAware ADS-B
Thu 01:06:36 AM 49.0556 -2.6924 271° West 455 524 32,000  Level FlightAware ADS-B (EGJJ / JER)
Thu 01:07:06 AM 49.0567 -2.7847 271° West 456 525 32,000  Level FlightAware ADS-B (CYOW)
Thu 01:07:36 AM 49.0577 -2.8715 271° West 456 525 32,000  Level FlightAware ADS-B (EGJJ / JER)
Thu 01:08:06 AM 49.0588 -2.9778 271° West 456 525 32,000  Level FlightAware ADS-B (CYOW)
Thu 01:08:36 AM 49.0598 -3.0751 271° West 456 525 32,000  Level FlightAware ADS-B (EGJJ / JER)
Thu 01:09:06 AM 49.0606 -3.1698 271° West 456 525 32,000  Level FlightAware ADS-B (CYOW)
Thu 01:09:46 AM 49.0616 -3.2994 271° West 457 526 32,000  Level FlightAware ADS-B (CYOW)
Thu 01:10:26 AM 49.0625 -3.4258 271° West 458 527 32,000  Level FlightAware ADS-B (CYOW)
Thu 01:10:59 AM 49.0631 -3.5315 270° West 459 528 32,000  Level FlightAware ADS-B (EGLF / FAB)
Thu 01:11:34 AM 49.0637 -3.6488 271° West 459 528 32,000  Level FlightAware ADS-B
Thu 01:12:04 AM 49.0641 -3.7465 270° West 459 528 32,000  Level FlightAware ADS-B (EGLF / FAB)
Thu 01:12:40 AM 49.0641 -3.8623 270° West 468 539 32,000  Level FlightAware UK
Thu 01:12:46 AM 49.0643 -3.8766 270° West 460 529 32,000  Level FlightAware ADS-B (CYOW)
Thu 01:13:16 AM 49.0644 -3.9781 270° West 470 541 32,000  Level FlightAware UK
Thu 01:13:26 AM 49.0647 -4.0075 270° West 460 529 32,000  Level FlightAware ADS-B (CYOW)
Thu 01:14:06 AM 49.0647 -4.1406 270° West 461 531 32,000  Level FlightAware ADS-B (CYOW)
Thu 01:14:46 AM 49.0646 -4.2629 270° West 461 531 32,000  Level FlightAware ADS-B (CYOW)
Thu 01:15:26 AM 49.0643 -4.3968 270° West 462 532 32,000  Level FlightAware ADS-B (CYOW)
Thu 01:16:03 AM 49.0640 -4.5221 270° West 470 541 32,000  Level FlightAware UK
Thu 01:16:06 AM 49.0641 -4.5283 270° West 463 533 32,000  Level FlightAware ADS-B (CYOW)
Thu 01:16:46 AM 49.0634 -4.6598 270° West 463 533 32,000  Level FlightAware ADS-B (CYOW)
Thu 01:17:21 AM 49.0629 -4.7744 270° West 463 533 32,000  Level FlightAware ADS-B
Thu 01:18:21 AM 49.0615 -4.9709 270° West 468 539 32,000  Level FlightAware UK
Thu 01:18:46 AM 49.0611 -5.0461 270° West 465 535 32,000  Level FlightAware ADS-B (CYOW)
Thu 01:19:21 AM 49.0601 -5.1670 270° West 470 541 32,000  Level FlightAware UK
Thu 01:19:26 AM 49.0600 -5.1818 270° West 466 536 32,000 1,067 Level FlightAware ADS-B (CYOW)
Thu 01:20:06 AM 49.0588 -5.2991 269° West 466 536 32,800 1,367 Climbing FlightAware ADS-B (CYOW)
Thu 01:20:45 AM 49.0573 -5.4392 269° West 464 534 33,800 889 Climbing FlightAware ADS-B (CYOW)
Thu 01:21:27 AM 49.0558 -5.5795 269° West 468 539 34,000 154 Climbing FlightAware UK
Thu 01:22:03 AM 49.0542 -5.6968 269° West 466 536 34,000  Level FlightAware UK
Thu 01:22:23 AM 49.0533 -5.7569 269° West 464 534 34,000  Level FlightAware ADS-B (CYOW)
Thu 01:23:06 AM 49.0515 -5.8857 269° West 465 535 34,000  Level FlightAware ADS-B (CYOW)
Thu 01:23:45 AM 49.0491 -6.0289 269° West 466 536 34,000  Level FlightAware UK
Thu 01:23:45 AM 49.0494 -6.0170 269° West 466 536 34,000  Level FlightAware ADS-B (CYOW)
Thu 01:24:15 AM 49.0476 -6.1271 269° West 464 534 34,000  Level FlightAware UK
Thu 01:24:23 AM 49.0471 -6.1506 269° West 466 536 34,000  Level FlightAware ADS-B (CYOW)
Thu 01:25:21 AM 49.0436 -6.3432 269° West 466 536 34,000  Level FlightAware UK
Thu 01:25:51 AM 49.0415 -6.4417 268° West 468 539 34,000  Level FlightAware UK
Thu 01:26:21 AM 49.0395 -6.5404 268° West 468 539 34,000  Level FlightAware UK
Thu 01:26:25 AM 49.0409 -6.5526 268° West 465 535 34,000  Level FlightAware ADS-B (CYOW)
Thu 01:27:06 AM 49.0460 -6.6859 273° West 464 534 34,000  Level FlightAware ADS-B (CYOW)
Thu 01:27:46 AM 49.0499 -6.8082 273° West 459 528 34,000  Level FlightAware ADS-B (CYOW)
Thu 01:28:21 AM 49.0545 -6.9315 273° West 460 529 34,000  Level FlightAware UK
Thu 01:28:45 AM 49.0545 -7.0057 273° West 454 522 34,000  Level FlightAware ADS-B (CYOW)
Thu 01:29:26 AM 49.0585 -7.1405 273° West 460 529 34,000  Level FlightAware UK
Thu 01:29:56 AM 49.0601 -7.2357 271° West 458 527 34,000  Level FlightAware UK
Thu 01:30:26 AM 49.0624 -7.3314 272° West 458 527 34,000  Level FlightAware UK
Thu 01:30:56 AM 49.0646 -7.4264 272° West 456 525 34,000  Level FlightAware UK
Thu 01:31:26 AM 49.0670 -7.5214 272° West 454 522 34,000  Level FlightAware UK
Thu 01:31:56 AM 49.0697 -7.6170 273° West 456 525 34,000  Level FlightAware UK
Thu 01:32:26 AM 49.0721 -7.7123 272° West 458 527 34,000  Level FlightAware UK
Thu 01:32:56 AM 49.0732 -7.8068 271° West 1 1 34,000  Level FlightAware UK
Thu 01:33:26 AM 49.0748 -7.9019 272° West 458 527 34,000  Level FlightAware UK
Thu 01:33:56 AM 49.0765 -7.9974 272° West 458 527 34,000  Level FlightAware UK
Thu 01:34:32 AM 49.0787 -8.1115 272° West 458 527 34,000  Level FlightAware UK
Thu 01:35:02 AM 49.0804 -8.2069 272° West 458 527 34,000  Level FlightAware UK
Thu 01:35:32 AM 49.0823 -8.3032 272° West 458 527 34,000  Level FlightAware UK
Thu 01:36:02 AM 49.0838 -8.3993 271° West 460 529 34,000  Level FlightAware UK
Thu 01:36:32 AM 49.0852 -8.4954 271° West 460 529 34,000  Level FlightAware UK
Thu 01:37:02 AM 49.0862 -8.5913 271° West 460 529 34,000  Level FlightAware UK
Thu 01:37:32 AM 49.0872 -8.6871 271° West 460 529 34,000  Level FlightAware UK
Thu 01:38:02 AM 49.0876 -8.7825 270° West 1 1 34,000  Level FlightAware UK
Thu 01:38:32 AM 49.0892 -8.8798 271° West 460 529 34,000  Level FlightAware UK
Thu 01:39:02 AM 49.0898 -8.9761 271° West 462 532 34,000  Level FlightAware UK
Thu 01:41:00 AM 49.1457 -9.3013 285° West  Level Estimated
Thu 01:48:00 AM 49.3375 -10.4646 285° West  Level Estimated
Thu 01:49:00 AM 49.3639 -10.6315 284° West  Level Estimated
Thu 01:50:00 AM 49.3901 -10.7986 284° West  Level Estimated
Thu 01:51:00 AM 49.4161 -10.9659 283° West  Level Estimated
Thu 01:52:00 AM 49.4418 -11.1333 283° West  Level Estimated
Thu 01:53:00 AM 49.4673 -11.3009 283° West  Level Estimated
Thu 01:54:00 AM 49.4925 -11.4687 283° West  Level Estimated
Thu 01:55:00 AM 49.5175 -11.6367 283° West  Level Estimated
Thu 01:56:00 AM 49.5423 -11.8048 283° West  Level Estimated
Thu 01:57:00 AM 49.5667 -11.9731 283° West  Level Estimated
Thu 01:58:00 AM 49.5910 -12.1416 283° West  Level Estimated
Thu 01:59:00 AM 49.6150 -12.3102 282° West  Level Estimated
Thu 02:00:00 AM 49.6388 -12.4790 282° West  Level Estimated
Thu 02:01:00 AM 49.6623 -12.6480 282° West  Level Estimated
Thu 02:02:00 AM 49.6856 -12.8171 282° West  Level Estimated
Thu 02:03:00 AM 49.7086 -12.9864 282° West  Level Estimated
Thu 02:04:00 AM 49.7314 -13.1559 282° West  Level Estimated
Thu 02:05:00 AM 49.7539 -13.3255 282° West  Level Estimated
Thu 02:06:00 AM 49.7762 -13.4953 282° West  Level Estimated
Thu 02:07:00 AM 49.7982 -13.6652 281° West  Level Estimated
Thu 02:08:00 AM 49.8200 -13.8353 281° West  Level Estimated
Thu 02:09:00 AM 49.8416 -14.0055 281° West  Level Estimated
Thu 02:10:00 AM 49.8629 -14.1759 281° West  Level Estimated
Thu 02:11:00 AM 49.8839 -14.3464 281° West  Level Estimated
Thu 02:12:00 AM 49.9047 -14.5171 281° West  Level Estimated
Thu 02:13:00 AM 49.9252 -14.6879 281° West  Level Estimated
Thu 02:14:00 AM 49.9455 -14.8589 281° West  Level Estimated
Thu 02:15:00 AM 49.9656 -15.0300 280° West  Level Estimated
Thu 02:16:00 AM 49.9854 -15.2012 280° West  Level Estimated
Thu 02:17:00 AM 50.0049 -15.3726 280° West  Level Estimated
Thu 02:18:00 AM 50.0242 -15.5442 280° West  Level Estimated
Thu 02:19:00 AM 50.0432 -15.7158 280° West  Level Estimated
Thu 02:20:00 AM 50.0620 -15.8876 280° West  Level Estimated
Thu 02:21:00 AM 50.0805 -16.0596 280° West  Level Estimated
Thu 02:22:00 AM 50.0988 -16.2316 279° West  Level Estimated
Thu 02:23:00 AM 50.1168 -16.4038 279° West  Level Estimated
Thu 02:24:00 AM 50.1345 -16.5762 279° West  Level Estimated
Thu 02:25:00 AM 50.1520 -16.7486 279° West  Level Estimated
Thu 02:26:00 AM 50.1693 -16.9212 279° West  Level Estimated
Thu 02:27:00 AM 50.1862 -17.0939 279° West  Level Estimated
Thu 02:28:00 AM 50.2030 -17.2667 279° West  Level Estimated
Thu 02:29:00 AM 50.2195 -17.4397 279° West  Level Estimated
Thu 02:30:00 AM 50.2357 -17.6128 278° West  Level Estimated
Thu 02:31:00 AM 50.2516 -17.7859 278° West  Level Estimated
Thu 02:32:00 AM 50.2673 -17.9592 278° West  Level Estimated
Thu 02:33:00 AM 50.2828 -18.1327 278° West  Level Estimated
Thu 02:34:00 AM 50.2980 -18.3062 278° West  Level Estimated
Thu 02:35:00 AM 50.3129 -18.4798 278° West  Level Estimated
Thu 02:35:00 AM 49.0000 -20.0000 274° West 481 554 34,000  Level ETMS Enhanced Traffic Management System
Thu 02:36:00 AM 50.3276 -18.6535 278° West  Level Estimated
Thu 02:37:00 AM 50.3420 -18.8274 277° West  Level Estimated
Thu 02:38:00 AM 50.3561 -19.0013 277° West  Level Estimated
Thu 02:39:00 AM 50.3700 -19.1754 277° West  Level Estimated
Thu 02:40:00 AM 50.3837 -19.3496 277° West  Level Estimated
Thu 02:41:00 AM 49.0464 -21.2221 273° West 481 554 34,000  Level FlightAware Transoceanic
Thu 02:42:00 AM 49.0529 -21.4260 273° West 481 554 34,000  Level FlightAware Transoceanic
Thu 02:43:00 AM 49.0591 -21.6300 273° West 481 554 34,000  Level FlightAware Transoceanic
Thu 02:44:00 AM 49.0648 -21.8340 272° West 481 554 34,000  Level FlightAware Transoceanic
Thu 02:45:00 AM 49.0702 -22.0380 272° West 481 554 34,000  Level FlightAware Transoceanic
Thu 02:46:00 AM 49.0753 -22.2421 272° West 481 554 34,000  Level FlightAware Transoceanic
Thu 02:47:00 AM 49.0799 -22.4462 272° West 481 554 34,000  Level FlightAware Transoceanic
Thu 02:48:00 AM 49.0843 -22.6504 272° West 481 554 34,000  Level FlightAware Transoceanic
Thu 02:49:00 AM 49.0882 -22.8546 272° West 481 554 34,000  Level FlightAware Transoceanic
Thu 02:50:00 AM 49.0919 -23.0588 271° West 481 554 34,000  Level FlightAware Transoceanic
Thu 02:51:00 AM 49.0951 -23.2631 271° West 481 554 34,000  Level FlightAware Transoceanic
Thu 02:52:00 AM 49.0980 -23.4674 271° West 481 554 34,000  Level FlightAware Transoceanic
Thu 02:53:00 AM 49.1005 -23.6717 271° West 481 554 34,000  Level FlightAware Transoceanic
Thu 02:54:00 AM 49.1027 -23.8760 271° West 481 554 34,000  Level FlightAware Transoceanic
Thu 02:55:00 AM 49.1045 -24.0803 271° West 481 554 34,000  Level FlightAware Transoceanic
Thu 02:56:00 AM 49.1059 -24.2847 271° West 481 554 34,000  Level FlightAware Transoceanic
Thu 02:57:00 AM 49.1070 -24.4891 270° West 481 554 34,000  Level FlightAware Transoceanic
Thu 02:58:00 AM 49.1077 -24.6934 270° West 481 554 34,000  Level FlightAware Transoceanic
Thu 02:59:00 AM 49.1081 -24.8978 270° West 481 554 34,000  Level FlightAware Transoceanic
Thu 03:00:00 AM 49.1081 -25.1022 270° West 481 554 34,000  Level FlightAware Transoceanic
Thu 03:01:00 AM 49.1077 -25.3066 270° West 481 554 34,000  Level FlightAware Transoceanic
Thu 03:02:00 AM 49.1070 -25.5109 270° West 481 554 34,000  Level FlightAware Transoceanic
Thu 03:03:00 AM 49.1059 -25.7153 269° West 481 554 34,000  Level FlightAware Transoceanic
Thu 03:04:00 AM 49.1045 -25.9197 269° West 481 554 34,000  Level FlightAware Transoceanic
Thu 03:05:00 AM 49.1027 -26.1240 269° West 481 554 34,000  Level FlightAware Transoceanic
Thu 03:06:00 AM 49.1005 -26.3283 269° West 481 554 34,000  Level FlightAware Transoceanic
Thu 03:07:00 AM 49.0980 -26.5326 269° West 481 554 34,000  Level FlightAware Transoceanic
Thu 03:08:00 AM 49.0951 -26.7369 269° West 481 554 34,000  Level FlightAware Transoceanic
Thu 03:09:00 AM 49.0919 -26.9412 269° West 481 554 34,000  Level FlightAware Transoceanic
Thu 03:10:00 AM 49.0882 -27.1454 268° West 481 554 34,000  Level FlightAware Transoceanic
Thu 03:11:00 AM 49.0843 -27.3496 268° West 481 554 34,000  Level FlightAware Transoceanic
Thu 03:12:00 AM 49.0799 -27.5538 268° West 481 554 34,000  Level FlightAware Transoceanic
Thu 03:13:00 AM 49.0753 -27.7579 268° West 481 554 34,000  Level FlightAware Transoceanic
Thu 03:14:00 AM 49.0702 -27.9620 268° West 481 554 34,000  Level FlightAware Transoceanic
Thu 03:15:00 AM 49.0648 -28.1660 268° West 481 554 34,000  Level FlightAware Transoceanic
Thu 03:16:00 AM 49.0591 -28.3700 267° West 481 554 34,000  Level FlightAware Transoceanic
Thu 03:17:00 AM 49.0529 -28.5740 267° West 481 554 34,000  Level FlightAware Transoceanic
Thu 03:18:00 AM 49.0464 -28.7779 267° West 481 554 34,000  Level FlightAware Transoceanic
Thu 03:19:00 AM 49.0396 -28.9817 267° West 481 554 34,000  Level FlightAware Transoceanic
Thu 03:20:00 AM 49.0324 -29.1855 267° West 481 554 34,000  Level FlightAware Transoceanic
Thu 03:21:00 AM 49.0248 -29.3892 267° West 481 554 34,000  Level FlightAware Transoceanic
Thu 03:22:00 AM 49.0169 -29.5929 267° West 481 554 34,000  Level FlightAware Transoceanic
Thu 03:23:00 AM 49.0086 -29.7965 266° West 481 554 34,000  Level FlightAware Transoceanic
Thu 03:24:00 AM 49.0114 -29.9670 271° West  Level Estimated
Thu 03:25:00 AM 49.0139 -30.1376 271° West  Level Estimated
Thu 03:26:00 AM 49.0161 -30.3081 271° West  Level Estimated
Thu 03:27:00 AM 49.0181 -30.4787 271° West  Level Estimated
Thu 03:28:00 AM 49.0199 -30.6493 271° West  Level Estimated
Thu 03:29:00 AM 49.0214 -30.8200 271° West  Level Estimated
Thu 03:30:00 AM 49.0226 -30.9906 271° West  Level Estimated
Thu 03:31:00 AM 49.0236 -31.1612 271° West  Level Estimated
Thu 03:32:00 AM 49.0244 -31.3319 270° West  Level Estimated
Thu 03:33:00 AM 49.0248 -31.5025 270° West  Level Estimated
Thu 03:34:00 AM 49.0251 -31.6732 270° West  Level Estimated
Thu 03:35:00 AM 49.0251 -31.8438 270° West  Level Estimated
Thu 03:36:00 AM 49.0248 -32.0145 270° West  Level Estimated
Thu 03:37:00 AM 49.0243 -32.1851 270° West  Level Estimated
Thu 03:38:00 AM 49.0235 -32.3557 270° West  Level Estimated
Thu 03:39:00 AM 49.0225 -32.5264 270° West  Level Estimated
Thu 03:40:00 AM 49.0212 -32.6970 269° West  Level Estimated
Thu 03:41:00 AM 49.0197 -32.8676 269° West  Level Estimated
Thu 03:42:00 AM 49.0179 -33.0382 269° West  Level Estimated
Thu 03:43:00 AM 49.0159 -33.2088 269° West  Level Estimated
Thu 03:44:00 AM 49.0136 -33.3794 269° West  Level Estimated
Thu 03:45:00 AM 49.0111 -33.5500 269° West  Level Estimated
Thu 03:46:00 AM 49.0083 -33.7205 269° West  Level Estimated
Thu 03:47:00 AM 49.0053 -33.8910 269° West  Level Estimated
Thu 03:48:00 AM 49.0020 -34.0615 268° West  Level Estimated
Thu 03:49:00 AM 48.9985 -34.2320 268° West  Level Estimated
Thu 03:50:00 AM 48.9947 -34.4025 268° West  Level Estimated
Thu 03:51:00 AM 48.9907 -34.5729 268° West  Level Estimated
Thu 03:52:00 AM 48.9864 -34.7433 268° West  Level Estimated
Thu 03:53:00 AM 48.9818 -34.9137 268° West  Level Estimated
Thu 03:54:00 AM 48.9771 -35.0840 268° West  Level Estimated
Thu 03:55:00 AM 48.9720 -35.2543 267° West  Level Estimated
Thu 03:56:00 AM 48.9667 -35.4246 267° West  Level Estimated
Thu 03:57:00 AM 48.9612 -35.5948 267° West  Level Estimated
Thu 03:58:00 AM 48.9554 -35.7650 267° West  Level Estimated
Thu 03:59:00 AM 48.9493 -35.9351 267° West  Level Estimated
Thu 04:00:00 AM 48.9431 -36.1052 267° West  Level Estimated
Thu 04:01:00 AM 48.9365 -36.2753 267° West  Level Estimated
Thu 04:02:00 AM 48.9297 -36.4453 267° West  Level Estimated
Thu 04:03:00 AM 48.9227 -36.6153 266° West  Level Estimated
Thu 04:04:00 AM 48.9154 -36.7852 266° West  Level Estimated
Thu 04:05:00 AM 48.9079 -36.9551 266° West  Level Estimated
Thu 04:06:00 AM 48.9001 -37.1249 266° West  Level Estimated
Thu 04:07:00 AM 48.8920 -37.2947 266° West  Level Estimated
Thu 04:08:00 AM 48.8837 -37.4644 266° West  Level Estimated
Thu 04:09:00 AM 48.8752 -37.6340 266° West  Level Estimated
Thu 04:10:00 AM 48.8664 -37.8036 266° West  Level Estimated
Thu 04:11:00 AM 48.8574 -37.9732 265° West  Level Estimated
Thu 04:12:00 AM 48.8481 -38.1427 265° West  Level Estimated
Thu 04:13:00 AM 48.8386 -38.3121 265° West  Level Estimated
Thu 04:14:00 AM 48.8288 -38.4814 265° West  Level Estimated
Thu 04:15:00 AM 48.8188 -38.6507 265° West  Level Estimated
Thu 04:16:00 AM 48.8085 -38.8199 265° West  Level Estimated
Thu 04:17:00 AM 48.7980 -38.9890 265° West  Level Estimated
Thu 04:18:00 AM 48.7872 -39.1581 265° West  Level Estimated
Thu 04:19:00 AM 48.7762 -39.3271 264° West  Level Estimated
Thu 04:20:00 AM 48.7649 -39.4960 264° West  Level Estimated
Thu 04:21:00 AM 48.7534 -39.6648 264° West  Level Estimated
Thu 04:22:00 AM 48.7416 -39.8336 264° West  Level Estimated
Thu 04:23:00 AM 48.7296 -40.0023 264° West  Level Estimated
Thu 04:24:00 AM 48.7174 -40.1709 264° West  Level Estimated
Thu 04:25:00 AM 48.7049 -40.3394 264° West  Level Estimated
Thu 04:26:00 AM 48.6922 -40.5079 264° West  Level Estimated
Thu 04:27:00 AM 48.6792 -40.6762 263° West  Level Estimated
Thu 04:28:00 AM 48.6659 -40.8445 263° West  Level Estimated
Thu 04:29:00 AM 48.6525 -41.0126 263° West  Level Estimated
Thu 04:30:00 AM 48.6387 -41.1807 263° West  Level Estimated
Thu 04:31:00 AM 48.6248 -41.3487 263° West  Level Estimated
Thu 04:32:00 AM 48.6105 -41.5166 263° West  Level Estimated
Thu 04:33:00 AM 48.5961 -41.6844 263° West  Level Estimated
Thu 04:34:00 AM 48.5814 -41.8521 263° West  Level Estimated
Thu 04:35:00 AM 48.5665 -42.0197 262° West  Level Estimated
Thu 04:36:00 AM 48.5513 -42.1872 262° West  Level Estimated
Thu 04:37:00 AM 48.5359 -42.3546 262° West  Level Estimated
Thu 04:38:00 AM 48.5202 -42.5219 262° West  Level Estimated
Thu 04:39:00 AM 48.5043 -42.6891 262° West  Level Estimated
Thu 04:40:00 AM 48.4881 -42.8562 262° West  Level Estimated
Thu 04:41:00 AM 48.4717 -43.0232 262° West  Level Estimated
Thu 04:42:00 AM 48.4551 -43.1901 262° West  Level Estimated
Thu 04:43:00 AM 48.4382 -43.3568 261° West  Level Estimated
Thu 04:44:00 AM 48.4211 -43.5235 261° West  Level Estimated
Thu 04:45:00 AM 48.4037 -43.6900 261° West  Level Estimated
Thu 04:46:00 AM 48.3861 -43.8565 261° West  Level Estimated
Thu 04:47:00 AM 48.3683 -44.0228 261° West  Level Estimated
Thu 04:48:00 AM 48.3502 -44.1890 261° West  Level Estimated
Thu 04:49:00 AM 48.3319 -44.3550 261° West  Level Estimated
Thu 04:50:00 AM 48.3133 -44.5210 261° West  Level Estimated
Thu 04:51:00 AM 48.2945 -44.6868 260° West  Level Estimated
Thu 04:52:00 AM 48.2755 -44.8525 260° West  Level Estimated
Thu 04:53:00 AM 48.2562 -45.0181 260° West  Level Estimated
Thu 04:54:00 AM 48.2367 -45.1836 260° West  Level Estimated
Thu 04:55:00 AM 48.2170 -45.3489 260° West  Level Estimated
Thu 04:56:00 AM 48.1970 -45.5141 260° West  Level Estimated
Thu 04:57:00 AM 48.1768 -45.6792 260° West  Level Estimated
Thu 04:58:00 AM 48.1563 -45.8442 260° West  Level Estimated
Thu 04:59:00 AM 48.1356 -46.0090 259° West  Level Estimated
Thu 05:00:00 AM 48.1147 -46.1736 259° West  Level Estimated
Thu 05:01:00 AM 48.0935 -46.3382 259° West  Level Estimated
Thu 05:02:00 AM 48.0721 -46.5026 259° West  Level Estimated
Thu 05:03:00 AM 48.0505 -46.6669 259° West  Level Estimated
Thu 05:04:00 AM 48.0286 -46.8310 259° West  Level Estimated
Thu 05:05:00 AM 48.0065 -46.9950 259° West  Level Estimated
Thu 05:06:00 AM 47.9842 -47.1588 259° West  Level Estimated
Thu 05:07:00 AM 47.9616 -47.3226 258° West  Level Estimated
Thu 05:08:00 AM 47.9388 -47.4861 258° West  Level Estimated
Thu 05:09:00 AM 47.9158 -47.6495 258° West  Level Estimated
Thu 05:10:00 AM 47.8926 -47.8128 258° West  Level Estimated
Thu 05:11:00 AM 47.8691 -47.9759 258° West  Level Estimated
Thu 05:12:00 AM 47.8453 -48.1389 258° West  Level Estimated
Thu 05:12:34 AM 49.0000 -50.0500 257° West 410 472 34,000  Level Gander Center
Thu 05:13:00 AM 47.8214 -48.3018 258° West  Level Estimated
Thu 05:13:34 AM 48.9667 -50.2000 251° West 410 472 34,000  Level Gander Center
Thu 05:14:00 AM 47.7955 -48.4756 258° West  Level Estimated
Thu 05:14:34 AM 48.9167 -50.4000 249° West 410 472 34,000  Level Gander Center
Thu 05:15:00 AM 47.7694 -48.6492 257° West  Level Estimated
Thu 05:15:34 AM 48.8667 -50.5333 240° Southwest 410 472 34,000  Level Gander Center
Thu 05:16:00 AM 47.7431 -48.8226 257° West  Level Estimated
Thu 05:16:26 AM 48.8500 -50.6833 260° West 410 472 34,000  Level Moncton Center
Thu 05:17:00 AM 47.7164 -48.9959 257° West  Level Estimated
Thu 05:17:26 AM 48.8000 -50.8333 243° Southwest 410 472 34,000  Level Moncton Center
Thu 05:18:26 AM 48.7500 -51.0000 246° West 410 472 34,000  Level Moncton Center
Thu 05:19:34 AM 48.7167 -51.1833 255° West 410 472 34,000  Level Gander Center
Thu 05:20:34 AM 48.6667 -51.3500 246° West 410 472 34,000  Level Gander Center
Thu 05:21:26 AM 48.6333 -51.4833 249° West 410 472 34,000  Level Moncton Center
Thu 05:22:26 AM 48.5833 -51.6333 243° Southwest 410 472 34,000  Level Moncton Center
Thu 05:23:26 AM 48.5500 -51.8167 255° West 410 472 34,000  Level Moncton Center
Thu 05:24:26 AM 48.5000 -51.9500 241° Southwest 410 472 34,000  Level Moncton Center
Thu 05:25:26 AM 48.4500 -52.1500 249° West 420 483 34,000  Level Moncton Center
Thu 05:26:26 AM 48.4167 -52.2833 249° West 420 483 34,000  Level Moncton Center
Thu 05:27:34 AM 48.3667 -52.4667 248° West 420 483 34,000  Level Gander Center
Thu 05:28:34 AM 48.3333 -52.6167 252° West 420 483 34,000  Level Gander Center
Thu 05:29:26 AM 48.2833 -52.7667 243° Southwest 420 483 34,000  Level Moncton Center
Thu 05:30:34 AM 48.2333 -52.9667 249° West 420 483 34,000  Level Gander Center
Thu 05:31:34 AM 48.1833 -53.1333 246° West 420 483 34,000  Level Gander Center
Thu 05:32:34 AM 48.1500 -53.2833 252° West 420 483 34,000  Level Gander Center
Thu 05:33:34 AM 48.0833 -53.4500 239° Southwest 420 483 34,000  Level Gander Center
Thu 05:34:34 AM 48.0500 -53.6000 252° West 420 483 34,000  Level Gander Center
Thu 05:35:34 AM 48.0000 -53.7833 248° West 430 495 34,000  Level Gander Center
Thu 05:36:34 AM 47.9500 -53.9333 244° Southwest 420 483 34,000  Level Gander Center
Thu 05:37:34 AM 47.9000 -54.1000 246° West 430 495 34,000  Level Gander Center
Thu 05:38:26 AM 47.8667 -54.2500 252° West 430 495 34,000  Level Moncton Center
Thu 05:39:26 AM 47.8167 -54.4000 244° Southwest 430 495 34,000  Level Moncton Center
Thu 05:40:26 AM 47.7667 -54.5667 246° West 430 495 34,000  Level Moncton Center
Thu 05:41:26 AM 47.7333 -54.7333 253° West 430 495 34,000  Level Moncton Center
Thu 05:42:26 AM 47.6667 -54.8833 237° Southwest 430 495 34,000  Level Moncton Center
Thu 05:43:26 AM 47.6167 -55.0667 248° West 430 495 34,000  Level Moncton Center
Thu 05:44:26 AM 47.5667 -55.2333 246° West 430 495 34,000  Level Moncton Center
Thu 05:45:26 AM 47.5333 -55.3833 252° West 430 495 34,000  Level Moncton Center
Thu 05:46:26 AM 47.4667 -55.5500 239° Southwest 440 506 34,000  Level Moncton Center
Thu 05:47:26 AM 47.4167 -55.7000 244° Southwest 430 495 34,000  Level Moncton Center
Thu 05:48:26 AM 47.3833 -55.8500 252° West 440 506 34,000  Level Moncton Center
Thu 05:49:34 AM 47.3000 -56.0500 238° Southwest 440 506 34,000  Level Gander Center
Thu 05:50:26 AM 47.2667 -56.2000 252° West 440 506 34,000  Level Moncton Center
Thu 05:51:26 AM 47.2167 -56.3500 244° Southwest 440 506 34,000  Level Moncton Center
Thu 05:52:26 AM 47.1667 -56.5333 248° West 440 506 34,000  Level Moncton Center
Thu 05:53:26 AM 47.1167 -56.6833 244° Southwest 430 495 34,000  Level Moncton Center
Thu 05:54:26 AM 47.0667 -56.8500 246° West 440 506 34,000  Level Moncton Center
Thu 05:55:26 AM 47.0000 -57.0000 237° Southwest 440 506 34,000  Level Moncton Center
Thu 05:56:26 AM 46.9500 -57.1833 248° West 430 495 34,000  Level Moncton Center
Thu 05:57:26 AM 46.9000 -57.3333 244° Southwest 430 495 34,000  Level Moncton Center
Thu 05:58:26 AM 46.8500 -57.4833 244° Southwest 430 495 34,000  Level Moncton Center
Thu 05:59:26 AM 46.8000 -57.6500 246° West 440 506 34,000  Level Moncton Center
Thu 06:00:26 AM 46.7333 -57.8000 237° Southwest 440 506 34,000  Level Moncton Center
Thu 06:01:26 AM 46.6833 -57.9500 244° Southwest 430 495 34,000  Level Moncton Center
Thu 06:02:26 AM 46.6333 -58.1000 244° Southwest 430 495 34,000  Level Moncton Center
Thu 06:03:26 AM 46.5833 -58.2833 248° West 450 518 34,000  Level Moncton Center
Thu 06:04:26 AM 46.5167 -58.4667 242° Southwest 440 506 34,000  Level Moncton Center
Thu 06:05:26 AM 46.4833 -58.6167 252° West 440 506 34,000  Level Moncton Center
Thu 06:06:26 AM 46.4167 -58.7667 237° Southwest 440 506 34,000  Level Moncton Center
Thu 06:07:26 AM 46.3833 -58.9333 254° West 440 506 34,000  Level Moncton Center
Thu 06:08:26 AM 46.3167 -59.0833 237° Southwest 440 506 34,000  Level Moncton Center
Thu 06:09:26 AM 46.2833 -59.2333 252° West 440 506 34,000  Level Moncton Center
Thu 06:10:26 AM 46.2167 -59.4167 242° Southwest 440 506 34,000  Level Moncton Center
Thu 06:11:26 AM 46.1667 -59.5667 244° Southwest 440 506 34,000  Level Moncton Center
Thu 06:12:26 AM 46.1167 -59.7167 244° Southwest 430 495 34,000  Level Moncton Center
Thu 06:13:26 AM 46.0667 -59.8833 247° West 430 495 34,000  Level Moncton Center
Thu 06:14:26 AM 46.0167 -60.0333 244° Southwest 430 495 34,000  Level Moncton Center
Thu 06:15:26 AM 45.9667 -60.1833 244° Southwest 430 495 34,000  Level Moncton Center
Thu 06:16:26 AM 45.9000 -60.3500 240° Southwest 430 495 34,000  Level Moncton Center
Thu 06:17:26 AM 45.8667 -60.5000 252° West 440 506 34,000  Level Moncton Center
Thu 06:18:26 AM 45.8000 -60.6500 238° Southwest 440 506 34,000  Level Moncton Center
Thu 06:19:26 AM 45.7333 -60.8167 240° Southwest 450 518 34,000 50 Level Moncton Center
Thu 06:20:26 AM 45.6833 -61.0000 249° West 450 518 34,100  Climbing Moncton Center
Thu 06:21:26 AM 45.6333 -61.1667 247° West 450 518 34,000 -50 Descending Moncton Center
Thu 06:22:26 AM 45.5833 -61.3167 245° Southwest 450 518 34,000  Level Moncton Center
Thu 06:23:26 AM 45.5167 -61.4667 238° Southwest 440 506 34,000  Level Moncton Center
Thu 06:24:26 AM 45.4667 -61.6333 247° West 430 495 34,000  Level Moncton Center
Thu 06:25:26 AM 45.4167 -61.7833 245° Southwest 430 495 34,000  Level Moncton Center
Thu 06:31:33 AM 45.1595 -62.5420 245° Southwest 445 512 34,000  Level FlightAware ADS-B
Thu 06:32:51 AM 45.0110 -62.9445 243° Southwest 439 505 34,000  Level FlightAware ADS-B
Thu 06:34:12 AM 44.9348 -63.1483 242° Southwest 439 505 34,000  Level FlightAware ADS-B
Thu 06:34:50 AM 44.8965 -63.2511 242° Southwest 438 504 34,000  Level FlightAware ADS-B
Thu 06:35:24 AM 44.8642 -63.3373 242° Southwest 438 504 34,000  Level FlightAware ADS-B
Thu 06:36:12 AM 44.8231 -63.4462 242° Southwest 438 504 34,000  Level FlightAware ADS-B
Thu 06:36:53 AM 44.7804 -63.5593 242° Southwest 439 505 34,000  Level FlightAware ADS-B
Thu 06:37:31 AM 44.7500 -63.6388 242° Southwest 439 505 34,000  Level FlightAware ADS-B
Thu 06:38:11 AM 44.7053 -63.7559 242° Southwest 440 506 34,000  Level FlightAware ADS-B
Thu 06:38:53 AM 44.6682 -63.8520 242° Southwest 440 506 34,000  Level FlightAware ADS-B
Thu 06:39:32 AM 44.6296 -63.9525 242° Southwest 441 507 34,000  Level FlightAware ADS-B
Thu 06:40:11 AM 44.5897 -64.0561 242° Southwest 442 509 34,000  Level FlightAware ADS-B
Thu 06:40:52 AM 44.5493 -64.1604 242° Southwest 443 510 34,000  Level FlightAware ADS-B
Thu 06:41:32 AM 44.5100 -64.2617 241° Southwest 445 512 34,000  Level FlightAware ADS-B
Thu 06:42:13 AM 44.4718 -64.3595 241° Southwest 446 513 34,000  Level FlightAware ADS-B
Thu 06:42:53 AM 44.4332 -64.4585 241° Southwest 448 516 34,000  Level FlightAware ADS-B
Thu 06:43:33 AM 44.3905 -64.5665 241° Southwest 448 516 34,000  Level FlightAware ADS-B
Thu 06:44:09 AM 44.3554 -64.6557 241° Southwest 449 517 34,000  Level FlightAware ADS-B
Thu 06:44:53 AM 44.3098 -64.7710 241° Southwest 449 517 34,000  Level FlightAware ADS-B
Thu 06:45:32 AM 44.2709 -64.8686 241° Southwest 449 517 34,000  Level FlightAware ADS-B
Thu 06:46:13 AM 44.2299 -64.9714 241° Southwest 449 517 34,000  Level FlightAware ADS-B
Thu 06:46:52 AM 44.1898 -65.0718 241° Southwest 449 517 34,000  Level FlightAware ADS-B
Thu 06:47:31 AM 44.1506 -65.1695 241° Southwest 448 516 34,000  Level FlightAware ADS-B
Thu 06:48:03 AM 44.1183 -65.2495 241° Southwest 446 513 34,000  Level FlightAware ADS-B
Thu 06:48:44 AM 44.0777 -65.3500 241° Southwest 445 512 34,000  Level FlightAware ADS-B
Thu 06:49:17 AM 44.0448 -65.4310 241° Southwest 443 510 34,000  Level FlightAware ADS-B
Thu 06:49:56 AM 44.0042 -65.5308 240° Southwest 441 507 34,000  Level FlightAware ADS-B
Thu 06:50:43 AM 43.9587 -65.6423 240° Southwest 440 506 34,000  Level FlightAware ADS-B
Thu 06:51:20 AM 43.9204 -65.7359 240° Southwest 437 503 34,000  Level FlightAware ADS-B
Thu 06:51:36 AM 43.9114 -65.7576 240° Southwest 436 502  Descending FlightAware ADS-B
Thu 06:53:44 AM 43.7777 -66.0813 240° Southwest 433 498 34,000 12,364 Climbing FlightAware ADS-B
Thu 06:54:21 AM 43.7402 -66.1715 240° Southwest 431 496 34,000  Level FlightAware ADS-B
Thu 06:55:01 AM 43.7007 -66.2658 240° Southwest 431 496 34,000  Level FlightAware ADS-B
Thu 06:55:53 AM 43.6490 -66.3895 240° Southwest 431 496 34,000  Level FlightAware ADS-B
Thu 06:56:34 AM 43.6114 -66.4789 240° Southwest 432 497 34,000  Level FlightAware ADS-B
Thu 06:57:10 AM 43.5727 -66.5706 240° Southwest 431 496 34,000  Level FlightAware ADS-B
Thu 06:57:51 AM 43.5344 -66.6609 240° Southwest 431 496 34,000  Level FlightAware ADS-B
Thu 06:58:41 AM 43.4817 -66.7851 240° Southwest 431 496 34,000  Level FlightAware ADS-B
Thu 06:59:20 AM 43.4445 -66.8721 240° Southwest 432 497 34,000  Level FlightAware ADS-B
Thu 06:59:59 AM 43.3992 -66.9671 237° Southwest 436 502 34,000  Level FlightAware ADS-B
Thu 07:00:17 AM 43.3784 -67.0097 236° Southwest 432 497 34,000  Level FlightAware ADS-B (EPKK / KRK)
Thu 07:01:01 AM 43.3296 -67.1112 237° Southwest 435 501 34,000  Level FlightAware ADS-B
Thu 07:01:40 AM 43.2874 -67.1995 237° Southwest 434 499 34,000  Level FlightAware ADS-B
Thu 07:02:21 AM 43.2415 -67.2953 237° Southwest 433 498 34,000  Level FlightAware ADS-B
Thu 07:03:05 AM 43.1941 -67.3940 237° Southwest 433 498 34,000  Level FlightAware ADS-B
Thu 07:03:44 AM 43.1499 -67.4856 237° Southwest 434 499 34,000  Level FlightAware ADS-B
Thu 07:04:24 AM 43.1060 -67.5761 236° Southwest 434 499 34,000  Level FlightAware ADS-B
Thu 07:05:04 AM 43.0610 -67.6687 236° Southwest 435 501 34,000  Level FlightAware ADS-B
Thu 07:05:38 AM 43.0383 -67.7153 236° Southwest 435 501 34,000  Level FlightAware ADS-B
Thu 07:06:18 AM 42.9934 -67.8070 236° Southwest 435 501 34,000  Level FlightAware ADS-B
Thu 07:06:53 AM 42.9432 -67.9093 236° Southwest 435 501 34,000  Level FlightAware ADS-B
Thu 07:07:30 AM 42.8984 -68.0005 236° Southwest 435 501 34,000  Level FlightAware ADS-B
Thu 07:08:12 AM 42.8509 -68.0969 236° Southwest 435 501 34,000  Level FlightAware ADS-B
Thu 07:08:53 AM 42.8052 -68.1891 236° Southwest 435 501 34,000  Level FlightAware ADS-B
Thu 07:09:30 AM 42.7637 -68.2726 236° Southwest 434 499 34,000  Level FlightAware ADS-B
Thu 07:10:08 AM 42.7224 -68.3555 236° Southwest 432 497 34,000  Level FlightAware ADS-B
Thu 07:10:49 AM 42.6754 -68.4496 236° Southwest 432 497 34,000  Level FlightAware ADS-B
Thu 07:11:30 AM 42.6300 -68.5403 236° Southwest 431 496 34,000  Level FlightAware ADS-B
Thu 07:12:18 AM 42.5787 -68.6424 236° Southwest 430 495 34,000  Level FlightAware ADS-B (EPKK / KRK)
Thu 07:12:57 AM 42.5317 -68.7356 236° Southwest 430 495 34,000  Level FlightAware ADS-B
Thu 07:13:40 AM 42.4850 -68.8279 236° Southwest 430 495 34,000  Level FlightAware ADS-B (EPKK / KRK)
Thu 07:14:17 AM 42.4425 -68.9117 236° Southwest 431 496 34,000  Level FlightAware ADS-B
Thu 07:14:51 AM 42.4040 -68.9874 235° Southwest 432 497 34,000  Level FlightAware ADS-B
Thu 07:15:29 AM 42.3625 -69.0687 235° Southwest 431 496 34,000  Level FlightAware ADS-B (EPKK / KRK)
Thu 07:16:13 AM 42.3865 -69.0217 55° Northeast 432 497 34,000  Level FlightAware ADS-B
Thu 07:17:13 AM 42.2446 -69.2990 235° Southwest 432 497 34,000  Level FlightAware ADS-B (EPKK / KRK)
Thu 07:17:35 AM 42.2179 -69.3506 235° Southwest 428 493 34,000  Level FlightAware ADS-B
Thu 07:17:51 AM 42.2124 -69.3613 235° Southwest 432 497 34,000  Level FlightAware ADS-B (SBBR / BSB)
Thu 07:18:05 AM 42.1829 -69.4185 235° Southwest 428 493 34,000  Level FlightAware ADS-B
Thu 07:18:36 AM 42.1512 -69.4800 235° Southwest 433 498 34,000  Level FlightAware ADS-B (EPKK / KRK)
Thu 07:18:56 AM 42.1249 -69.5305 235° Southwest 428 493 34,000  Level FlightAware ADS-B
Thu 07:19:26 AM 42.1008 -69.5772 235° Southwest 433 498 34,000  Level FlightAware ADS-B (SBBR / BSB)
Thu 07:19:34 AM 42.0821 -69.6131 235° Southwest 427 491 34,000  Level FlightAware ADS-B (SBBR / BSB)
Thu 07:20:10 AM 42.0411 -69.6915 235° Southwest 426 490 34,000  Level FlightAware ADS-B
Thu 07:20:41 AM 42.0054 -69.7601 235° Southwest 431 496 34,000  Level FlightAware ADS-B (ESTA / AGH)
Thu 07:21:18 AM 41.9632 -69.8408 235° Southwest 430 495 34,000  Level FlightAware ADS-B (ESTA / AGH)
Thu 07:21:55 AM 41.9212 -69.9207 235° Southwest 431 496 34,000  Level FlightAware ADS-B (SBBR / BSB)
Thu 07:22:31 AM 41.8808 -69.9978 235° Southwest 430 495 34,000  Level FlightAware ADS-B (ESTA / AGH)
Thu 07:23:02 AM 41.8647 -70.0283 235° Southwest 430 495 34,000  Level FlightAware ADS-B (SBBR / BSB)
Thu 07:23:34 AM 41.8220 -70.1093 235° Southwest 429 494 34,000  Level FlightAware ADS-B (EPKK / KRK)
Thu 07:24:09 AM 41.7673 -70.2124 235° Southwest 430 495 34,000  Level FlightAware ADS-B (ESTA / AGH)
Thu 07:24:53 AM 41.7191 -70.3031 235° Southwest 431 496 34,000  Level FlightAware ADS-B (EPKK / KRK)
Thu 07:25:32 AM 41.6706 -70.3942 235° Southwest 431 496 34,000  Level FlightAware ADS-B (SBBR / BSB)
Thu 07:26:02 AM 41.6375 -70.4562 234° Southwest 432 497 34,000  Level FlightAware ADS-B (ESTA / AGH)
Thu 07:26:18 AM 41.6178 -70.4932 234° Southwest 428 493 34,000  Level FlightAware ADS-B
Thu 07:26:51 AM 41.5811 -70.5615 234° Southwest 433 498 34,000  Level FlightAware ADS-B (SBBR / BSB)
Thu 07:27:22 AM 41.5472 -70.6246 234° Southwest 433 498 34,000  Level FlightAware ADS-B (ESTA / AGH)
Thu 07:27:53 AM 41.5076 -70.6982 234° Southwest 428 493 34,000  Level FlightAware ADS-B
Thu 07:28:27 AM 41.4709 -70.7660 234° Southwest 434 499 34,000  Level FlightAware ADS-B (SBBR / BSB)
Thu 07:28:46 AM 41.4460 -70.8124 234° Southwest 429 494 34,000  Level FlightAware ADS-B
Thu 07:29:16 AM 41.4110 -70.8769 234° Southwest 434 499 34,000  Level FlightAware ADS-B (ESTA / AGH)
Thu 07:29:35 AM 41.3876 -70.9202 234° Southwest 429 494 34,000  Level FlightAware ADS-B
Thu 07:30:18 AM 41.3379 -71.0113 234° Southwest 434 499 34,000  Level FlightAware ADS-B
Thu 07:30:37 AM 41.3289 -71.0277 234° Southwest 434 499 34,000  Level FlightAware ADS-B (SBBR / BSB)
Thu 07:31:18 AM 41.2675 -71.1402 234° Southwest 434 499 34,000  Level FlightAware ADS-B
Thu 07:31:51 AM 41.2297 -71.2092 234° Southwest 435 501 34,000  Level FlightAware ADS-B (ESTA / AGH)
Thu 07:32:27 AM 41.1862 -71.2888 234° Southwest 436 502 34,000  Level FlightAware ADS-B (ESTA / AGH)
Thu 07:33:04 AM 41.1445 -71.3644 234° Southwest 436 502 34,000  Level FlightAware ADS-B (ESTA / AGH)
Thu 07:33:36 AM 41.1127 -71.4224 234° Southwest 436 502 34,000 -1,037 Level FlightAware ADS-B (ESTA / AGH)
Thu 07:34:25 AM 41.0478 -71.5403 234° Southwest 436 502 32,600 -2,860 Descending FlightAware ADS-B (SBBR / BSB)
Thu 07:35:02 AM 41.0020 -71.6229 234° Southwest 455 524 29,900 -3,360 Descending FlightAware ADS-B (SBBR / BSB)
Thu 07:35:40 AM 40.9532 -71.7099 233° Southwest 452 520 28,400 -1,421 Descending FlightAware ADS-B (SBBR / BSB)
Thu 07:36:18 AM 40.9071 -71.7920 233° Southwest 436 502 28,100 -308 Descending FlightAware ADS-B (SBBR / BSB)
Thu 07:36:58 AM 40.9131 -71.7811 54° Northeast 438 504 28,000 -75 Descending FlightAware ADS-B (KSNC)
Thu 07:37:38 AM 40.8138 -71.9593 234° Southwest 441 507 28,000  Level FlightAware ADS-B (KSNC)
Thu 07:38:25 AM 40.7534 -72.0670 234° Southwest 452 520 28,000  Level FlightAware ADS-B (KSNC)
Thu 07:39:08 AM 40.7308 -72.1069 233° Southwest 449 517 28,000  Level FlightAware ADS-B (KSNC)
Thu 07:40:20 AM 40.6113 -72.3177 233° Southwest 446 513 28,000 -214 Level FlightAware ADS-B (KSNC)
Thu 07:41:00 AM 40.5617 -72.4052 233° Southwest 444 511 27,600 -1,040 Descending FlightAware ADS-B (KSNC)
Thu 07:41:35 AM 40.5243 -72.4706 233° Southwest 436 502 26,700 -2,160 Descending FlightAware ADS-B (KSNC)
Thu 07:42:15 AM 40.4705 -72.5645 233° Southwest 424 488 24,900 -2,697 Descending FlightAware ADS-B (KSNC)
Thu 07:43:04 AM 40.4140 -72.6631 233° Southwest 417 480 22,700 -2,581 Descending FlightAware ADS-B (KSNC)
Thu 07:43:41 AM 40.3738 -72.7330 233° Southwest 408 470 21,200 -2,053 Descending FlightAware ADS-B (KSNC)
Thu 07:44:20 AM 40.3290 -72.8110 233° Southwest 398 458 20,100 -774 Descending FlightAware ADS-B (KSNC)
Thu 07:45:14 AM 40.2673 -72.9176 233° Southwest 404 465 20,000 -63 Descending FlightAware ADS-B (KSNC)
Thu 07:45:56 AM 40.2198 -72.9995 233° Southwest 403 464 20,000 -623 Level FlightAware ADS-B (KSNC)
Thu 07:47:00 AM 40.1479 -73.1233 233° Southwest 403 464 18,900 -1,011 Descending FlightAware ADS-B (KWWD)
Thu 07:49:00 AM 40.0158 -73.3486 233° Southwest 396 456 16,900 -972 Descending FlightAware ADS-B (KWWD)
Thu 07:49:59 AM 39.9537 -73.4544 233° Southwest 374 430 16,000 -735 Descending FlightAware ADS-B (KWWD)
Thu 07:50:38 AM 39.9124 -73.5244 232° Southwest 372 428 15,700 -474 Descending FlightAware ADS-B (KWWD)
Thu 07:51:15 AM 39.8734 -73.5882 231° Southwest 366 421 15,400 -439 Descending FlightAware ADS-B (KWWD)
Thu 07:52:00 AM 39.8237 -73.6661 230° Southwest 364 419 15,100 -424 Descending FlightAware ADS-B (KWWD)
Thu 07:52:40 AM 39.7810 -73.7335 230° Southwest 363 418 14,800 -456 Descending FlightAware ADS-B (KWWD)
Thu 07:53:19 AM 39.7387 -73.8007 231° Southwest 363 418 14,500 -450 Descending FlightAware ADS-B (KWWD)
Thu 07:54:00 AM 39.6948 -73.8700 231° Southwest 360 414 14,200 -370 Descending FlightAware ADS-B (KWWD)
Thu 07:54:40 AM 39.6516 -73.9382 231° Southwest 359 413 14,000 -222 Descending FlightAware ADS-B (KWWD)
Thu 07:55:21 AM 39.6082 -74.0062 230° Southwest 358 412 13,900 -76 Descending FlightAware ADS-B (KWWD)
Thu 07:55:59 AM 39.5672 -74.0703 230° Southwest 357 411 13,900  Level FlightAware ADS-B (KWWD)
Thu 07:56:41 AM 39.5295 -74.1437 236° Southwest 354 407 13,900 -197 Level FlightAware ADS-B (KWWD)
Thu 07:57:00 AM 39.5246 -74.1839 261° West 356 410 13,700 -1,400 Descending FlightAware ADS-B (KWWD)
Thu 07:57:41 AM 39.5256 -74.2677 271° West 327 376 12,500 -1,500 Descending FlightAware ADS-B (KWWD)
Thu 07:58:20 AM 39.5276 -74.3431 272° West 313 360 11,700 -1,367 Descending FlightAware ADS-B (KWWD)
Thu 07:59:00 AM 39.5290 -74.4166 271° West 306 352 10,700 -1,481 Descending FlightAware ADS-B (KWWD)
Thu 07:59:41 AM 39.5303 -74.4896 271° West 299 344 9,700 -1,500 Descending FlightAware ADS-B (KWWD)
Thu 08:00:00 AM 39.5309 -74.5244 271° West 296 341 9,200 -1,297 Descending FlightAware ADS-B (KWWD)
Thu 08:00:18 AM 39.5313 -74.5558 271° West 295 339 8,900 -450 Descending FlightAware ADS-B (KWWD)
Thu 08:00:40 AM 39.5320 -74.5954 271° West 295 339 8,900  Level FlightAware ADS-B (KWWD)
Thu 08:01:02 AM 39.5326 -74.6330 271° West 296 341 8,900  Level FlightAware ADS-B (KWWD)
Thu 08:01:20 AM 39.5331 -74.6647 271° West 294 338 8,900  Level FlightAware ADS-B (KWWD)
Thu 08:01:41 AM 39.5337 -74.7024 271° West 295 339 8,900  Level FlightAware ADS-B (KWWD)
Thu 08:02:01 AM 39.5343 -74.7382 271° West 298 343 8,900  Level FlightAware ADS-B (KWWD)
Thu 08:02:19 AM 39.5347 -74.7691 271° West 298 343 8,900  Level FlightAware ADS-B (KWWD)
Thu 08:02:40 AM 39.5353 -74.8075 271° West 296 341 8,900 -143 Level FlightAware ADS-B (KWWD)
Thu 08:03:01 AM 39.5359 -74.8437 271° West 295 339 8,800 -439 Descending FlightAware ADS-B (KWWD)
Thu 08:03:21 AM 39.5364 -74.8790 271° West 281 323 8,600 -947 Descending FlightAware ADS-B (KWWD)
Thu 08:03:39 AM 39.5368 -74.9081 271° West 267 307 8,200 -900 Descending FlightAware ADS-B (KWWD)
Thu 08:04:01 AM 39.5373 -74.9426 271° West 258 297 8,000 -429 Descending FlightAware ADS-B (KWWD)
Thu 08:04:21 AM 39.5383 -74.9728 272° West 251 289 7,900 -300 Descending FlightAware ADS-B (KWWD)
Thu 08:04:41 AM 39.5405 -75.0022 275° West 251 289 7,800 -600 Descending FlightAware ADS-B (KWWD)
Thu 08:05:01 AM 39.5428 -75.0330 276° West 252 290 7,500 -878 Descending FlightAware ADS-B (KWWD)
Thu 08:05:22 AM 39.5453 -75.0635 276° West 249 287 7,200 -900 Descending FlightAware ADS-B (KWWD)
Thu 08:05:41 AM 39.5477 -75.0923 276° West 245 282 6,900 -1,171 Descending FlightAware ADS-B (KWWD)
Thu 08:06:03 AM 39.5556 -75.1221 289° West 245 282 6,400 -1,538 Descending FlightAware ADS-B (KWWD)
Thu 08:06:20 AM 39.5630 -75.1470 291° West 250 288 5,900 -1,385 Descending FlightAware ADS-B (KWWD)
Thu 08:06:42 AM 39.5720 -75.1768 291° West 250 288 5,500 -1,116 Descending FlightAware ADS-B (KWWD)
Thu 08:07:03 AM 39.5811 -75.2063 292° West 247 284 5,100 -1,231 Descending FlightAware ADS-B (KWWD)
Thu 08:07:21 AM 39.5891 -75.2319 292° West 246 283 4,700 -1,263 Descending FlightAware ADS-B (KWWD)
Thu 08:07:41 AM 39.5975 -75.2593 292° West 247 284 4,300 -1,171 Descending FlightAware ADS-B (KWWD)
Thu 08:08:02 AM 39.6067 -75.2886 292° West 246 283 3,900 -1,200 Descending FlightAware ADS-B (KWWD)
Thu 08:08:21 AM 39.6152 -75.3149 293° West 246 283 3,500 -1,149 Descending FlightAware ADS-B (KWWD)
Thu 08:08:49 AM 39.6270 -75.3507 293° West 244 281 3,000 -750 Descending FlightAware ADS-B
Thu 08:09:09 AM 39.6353 -75.3761 293° West 239 275 2,900 -207 Descending FlightAware ADS-B
Thu 08:09:18 AM 39.6414 -75.3909 298° West 251 289 2,900  Level FlightAware ADS-B (KWWD)
Thu 08:09:27 AM 39.6482 -75.3990 317° Northwest 255 293 2,900  Level FlightAware ADS-B
Thu 08:09:39 AM 39.6614 -75.4080 332° Northwest 253 291 2,900  Level FlightAware ADS-B (KWWD)
Thu 08:10:02 AM 39.6860 -75.4236 334° Northwest 253 291 2,900  Level FlightAware ADS-B (KWWD)
Thu 08:10:17 AM 39.7020 -75.4340 333° Northwest 253 291 2,900  Level FlightAware ADS-B (KWWD)
Thu 08:10:43 AM 39.7299 -75.4524 333° Northwest 257 296 2,900  Level FlightAware ADS-B (KWWD)
Thu 08:10:59 AM 39.7470 -75.4634 334° Northwest 233 268 2,900  Level FlightAware ADS-B (KWWD)
Thu 08:11:21 AM 39.7683 -75.4769 334° Northwest 216 249 2,900  Level FlightAware ADS-B (KWWD)
Thu 08:11:42 AM 39.7865 -75.4880 335° Northwest 200 230 2,900 -450 Level FlightAware ADS-B (KWWD)
Thu 08:12:01 AM 39.8035 -75.4905 354° North 199 229 2,600 -973 Descending FlightAware ADS-B (KWWD)
Thu 08:12:19 AM 39.8164 -75.4780 37° Northeast 197 227 2,300 -973 Descending FlightAware ADS-B
Thu 08:12:38 AM 39.8215 -75.4661 61° Northeast 193 222 2,000 -585 Descending FlightAware ADS-B
Thu 08:13:00 AM 39.8290 -75.4337 73° East 186 214 1,900 -140 Descending FlightAware ADS-B
Thu 08:13:21 AM 39.8336 -75.4111 75° East 190 219 1,900 -316 Level FlightAware ADS-B (KWWD)
Thu 08:13:38 AM 39.8376 -75.3915 75° East 191 220 1,700 -900 Descending FlightAware ADS-B (KWWD)
Thu 08:14:01 AM 39.8408 -75.3751 75° East 186 214 1,300 -779 Descending FlightAware ADS-B
Thu 08:14:55 AM 39.8500 -75.3167 75° East 139 160 700 -667 Descending Philadelphia TRACON

Login

Don't have an account? Register now (free) for customized features, flight alerts, and more!